Time;durP1;ratioP1;P1;durP2;ratioP2;P2;SDS_P1;SDS_P2;PMS_P1;PMS_P2;Temp;Humidity;BMP_temperature;BMP_pressure;BME280_temperature;BME280_humidity;BME280_pressure;Samples;Min_cycle;Max_cycle;Signal;HPM_P1;HPM_P2
2021/11/03 00:00:25;;;;;;;4.28;3.58;;;;;;;;;;5027998;28;20180;-47
2021/11/03 00:02:51;;;;;;;3.22;2.92;;;;;;;;;;5019257;28;20199;-47
2021/11/03 00:05:18;;;;;;;3.60;3.30;;;;;;;;;;5018912;28;20473;-47
2021/11/03 00:07:44;;;;;;;3.67;3.10;;;;;;;;;;5035792;28;20168;-47
2021/11/03 00:10:12;;;;;;;3.38;2.90;;;;;;;;;;5035433;28;20241;-47
2021/11/03 00:12:39;;;;;;;4.80;3.10;;;;;;;;;;5035217;28;20219;-47
2021/11/03 00:15:05;;;;;;;3.15;2.95;;;;;;;;;;5031755;28;20587;-47
2021/11/03 00:17:31;;;;;;;2.78;2.58;;;;;;;;;;5035523;28;20187;-47
2021/11/03 00:19:57;;;;;;;2.80;2.60;;;;;;;;;;5034541;28;20267;-47
2021/11/03 00:22:23;;;;;;;3.22;2.83;;;;;;;;;;5035757;28;20561;-47
2021/11/03 00:24:49;;;;;;;2.95;2.75;;;;;;;;;;5032611;28;20180;-47
2021/11/03 00:27:15;;;;;;;2.90;2.70;;;;;;;;;;5035568;28;20173;-47
2021/11/03 00:29:41;;;;;;;2.88;2.55;;;;;;;;;;5034460;28;20443;-47
2021/11/03 00:32:08;;;;;;;4.88;2.78;;;;;;;;;;5035256;28;20222;-47
2021/11/03 00:34:35;;;;;;;3.10;2.83;;;;;;;;;;5030414;28;20198;-47
2021/11/03 00:37:01;;;;;;;2.88;2.47;;;;;;;;;;5015750;28;20184;-47
2021/11/03 00:39:27;;;;;;;2.58;2.38;;;;;;;;;;5020641;28;20176;-47
2021/11/03 00:41:53;;;;;;;2.75;2.55;;;;;;;;;;5035289;28;20176;-47
2021/11/03 00:44:20;;;;;;;4.47;2.80;;;;;;;;;;5029938;28;20188;-47
2021/11/03 00:46:46;;;;;;;3.47;2.78;;;;;;;;;;5035010;28;20278;-47
2021/11/03 00:49:13;;;;;;;2.90;2.50;;;;;;;;;;5030821;28;20259;-47
2021/11/03 00:51:39;;;;;;;2.75;2.55;;;;;;;;;;5033202;28;20215;-47
2021/11/03 00:54:05;;;;;;;3.17;2.65;;;;;;;;;;5034172;28;20587;-47
2021/11/03 00:56:31;;;;;;;2.70;2.50;;;;;;;;;;5029198;28;20176;-47
2021/11/03 00:58:57;;;;;;;2.70;2.50;;;;;;;;;;5034827;28;20520;-47
2021/11/03 01:01:23;;;;;;;2.78;2.42;;;;;;;;;;5033381;28;20502;-47
2021/11/03 01:03:49;;;;;;;2.45;2.25;;;;;;;;;;5034224;28;20191;-47
2021/11/03 01:06:15;;;;;;;3.08;2.30;;;;;;;;;;5033646;28;20183;-47
2021/11/03 01:08:41;;;;;;;2.58;2.38;;;;;;;;;;5034952;28;20192;-47
2021/11/03 01:11:08;;;;;;;2.08;1.98;;;;;;;;;;5015733;28;20580;-47
2021/11/03 01:13:34;;;;;;;3.65;2.40;;;;;;;;;;5028733;28;20190;-47
2021/11/03 01:16:01;;;;;;;2.50;2.30;;;;;;;;;;5016844;28;20553;-47
2021/11/03 01:18:28;;;;;;;2.35;2.10;;;;;;;;;;5015333;28;20177;-47
2021/11/03 01:20:54;;;;;;;2.13;2.00;;;;;;;;;;5031717;28;20184;-47
2021/11/03 01:23:21;;;;;;;3.30;2.10;;;;;;;;;;5033511;28;20275;-46
2021/11/03 01:25:47;;;;;;;2.08;1.98;;;;;;;;;;5033696;28;20186;-47
2021/11/03 01:28:14;;;;;;;2.30;2.10;;;;;;;;;;5034528;28;20176;-47
2021/11/03 01:30:40;;;;;;;2.00;1.90;;;;;;;;;;5019525;28;20440;-47
2021/11/03 01:33:06;;;;;;;2.20;2.10;;;;;;;;;;5033621;28;20528;-47
2021/11/03 01:35:32;;;;;;;1.85;1.75;;;;;;;;;;5032827;28;20645;-47
2021/11/03 01:37:58;;;;;;;1.95;1.85;;;;;;;;;;5023156;28;20181;-47
2021/11/03 01:40:25;;;;;;;2.25;2.10;;;;;;;;;;5015383;28;20169;-47
2021/11/03 01:42:52;;;;;;;2.58;1.90;;;;;;;;;;5033862;28;20295;-47
2021/11/03 01:45:20;;;;;;;2.00;1.88;;;;;;;;;;5028010;28;20692;-47
2021/11/03 01:47:46;;;;;;;1.70;1.60;;;;;;;;;;5032410;28;20192;-47
2021/11/03 01:50:30;;;;;;;1.70;1.60;;;;;;;;;;5034466;28;20192;-47
2021/11/03 01:53:07;;;;;;;2.45;1.80;;;;;;;;;;5034007;28;20194;-47
2021/11/03 01:55:34;;;;;;;2.50;2.00;;;;;;;;;;5029187;28;20194;-47
2021/11/03 01:58:06;;;;;;;1.70;1.58;;;;;;;;;;5034300;28;20445;-48
2021/11/03 02:00:37;;;;;;;1.83;1.73;;;;;;;;;;5015134;28;20207;-47
2021/11/03 02:03:06;;;;;;;1.83;1.73;;;;;;;;;;5019548;28;20196;-47
2021/11/03 02:05:33;;;;;;;1.88;1.55;;;;;;;;;;5033506;28;20482;-47
2021/11/03 02:07:59;;;;;;;2.55;1.50;;;;;;;;;;5034273;28;20168;-47
2021/11/03 02:10:25;;;;;;;1.58;1.48;;;;;;;;;;5033569;28;20272;-47
2021/11/03 02:12:51;;;;;;;1.80;1.70;;;;;;;;;;5033398;28;20642;-47
2021/11/03 02:15:17;;;;;;;2.67;1.73;;;;;;;;;;5023128;28;20180;-47
2021/11/03 02:17:44;;;;;;;1.85;1.67;;;;;;;;;;5014535;28;20204;-47
2021/11/03 02:20:12;;;;;;;1.52;1.42;;;;;;;;;;5017469;28;20180;-47
2021/11/03 02:22:37;;;;;;;2.38;1.70;;;;;;;;;;5034312;28;20187;-47
2021/11/03 02:25:06;;;;;;;1.60;1.50;;;;;;;;;;5024508;28;20180;-47
2021/11/03 02:27:33;;;;;;;1.80;1.70;;;;;;;;;;5014223;28;20569;-47
2021/11/03 02:29:59;;;;;;;1.52;1.42;;;;;;;;;;5014355;28;20448;-47
2021/11/03 02:32:27;;;;;;;1.63;1.52;;;;;;;;;;5014356;28;20215;-47
2021/11/03 02:34:53;;;;;;;1.60;1.50;;;;;;;;;;5019352;28;20259;-47
2021/11/03 02:37:28;;;;;;;1.52;1.40;;;;;;;;;;5032433;28;20267;-47
2021/11/03 02:39:57;;;;;;;1.55;1.45;;;;;;;;;;5033660;28;20192;-47
2021/11/03 02:42:24;;;;;;;1.70;1.60;;;;;;;;;;5033876;28;20176;-47
2021/11/03 02:44:52;;;;;;;1.70;1.60;;;;;;;;;;5030724;28;20195;-47
2021/11/03 02:47:18;;;;;;;1.50;1.40;;;;;;;;;;5033951;28;20198;-47
2021/11/03 02:49:44;;;;;;;1.60;1.50;;;;;;;;;;5037000;28;20183;-47
2021/11/03 02:52:14;;;;;;;1.25;1.25;;;;;;;;;;5036794;28;20211;-47
2021/11/03 02:54:40;;;;;;;1.80;1.70;;;;;;;;;;5034722;28;20187;-47
2021/11/03 02:57:07;;;;;;;1.50;1.40;;;;;;;;;;5037140;28;20172;-47
2021/11/03 02:59:33;;;;;;;1.70;1.60;;;;;;;;;;5037134;28;20436;-47
2021/11/03 03:02:00;;;;;;;1.67;1.58;;;;;;;;;;5036285;28;20204;-47
2021/11/03 03:04:29;;;;;;;1.35;1.35;;;;;;;;;;5034818;28;20562;-47
2021/11/03 03:06:56;;;;;;;1.60;1.50;;;;;;;;;;5035402;28;20581;-47
2021/11/03 03:09:22;;;;;;;1.45;1.35;;;;;;;;;;5031981;28;20192;-47
2021/11/03 03:11:52;;;;;;;1.85;1.75;;;;;;;;;;5017092;28;20270;-47
2021/11/03 03:14:19;;;;;;;1.70;1.60;;;;;;;;;;5028299;28;20552;-47
2021/11/03 03:16:46;;;;;;;1.38;1.27;;;;;;;;;;5033790;28;20191;-47
2021/11/03 03:19:13;;;;;;;1.60;1.50;;;;;;;;;;5036304;28;20203;-48
2021/11/03 03:21:39;;;;;;;1.50;1.40;;;;;;;;;;5035457;28;20182;-47
2021/11/03 03:24:06;;;;;;;1.63;1.30;;;;;;;;;;5029040;28;20190;-47
2021/11/03 03:26:32;;;;;;;1.58;1.48;;;;;;;;;;5033808;28;20188;-47
2021/11/03 03:28:58;;;;;;;1.33;1.30;;;;;;;;;;5034571;28;20183;-47
2021/11/03 03:31:25;;;;;;;1.70;1.40;;;;;;;;;;5028880;28;20234;-47
2021/11/03 03:33:52;;;;;;;1.50;1.40;;;;;;;;;;5035408;28;20188;-47
2021/11/03 03:36:18;;;;;;;1.48;1.38;;;;;;;;;;5035598;28;20184;-47
2021/11/03 03:38:44;;;;;;;1.50;1.40;;;;;;;;;;5018397;28;20556;-47
2021/11/03 03:41:10;;;;;;;1.25;1.23;;;;;;;;;;5024409;28;20229;-47
2021/11/03 03:43:37;;;;;;;1.20;1.10;;;;;;;;;;5034999;28;20188;-47
2021/11/03 03:46:03;;;;;;;1.40;1.30;;;;;;;;;;5027443;28;20200;-47
2021/11/03 03:48:29;;;;;;;1.45;1.33;;;;;;;;;;5028141;28;20188;-47
2021/11/03 03:50:55;;;;;;;1.38;1.27;;;;;;;;;;5020816;28;20208;-47
2021/11/03 03:53:22;;;;;;;1.30;1.20;;;;;;;;;;5035044;28;20203;-47
2021/11/03 03:55:49;;;;;;;1.40;1.30;;;;;;;;;;5035480;28;20266;-47
2021/11/03 03:58:17;;;;;;;1.50;1.40;;;;;;;;;;5034454;28;20180;-47
2021/11/03 04:00:43;;;;;;;1.35;1.25;;;;;;;;;;5035262;28;20196;-47
2021/11/03 04:03:09;;;;;;;2.05;1.42;;;;;;;;;;5035313;28;20195;-47
2021/11/03 04:05:35;;;;;;;1.58;1.48;;;;;;;;;;5032544;28;20195;-47
2021/11/03 04:08:01;;;;;;;1.40;1.30;;;;;;;;;;5035746;28;20191;-47
2021/11/03 04:10:27;;;;;;;2.15;1.40;;;;;;;;;;5033259;28;20509;-47
2021/11/03 04:12:53;;;;;;;1.40;1.30;;;;;;;;;;5031992;28;20820;-47
2021/11/03 04:15:20;;;;;;;2.50;1.40;;;;;;;;;;5035251;28;20569;-47
2021/11/03 04:17:46;;;;;;;1.55;1.45;;;;;;;;;;5026083;28;20260;-47
2021/11/03 04:20:13;;;;;;;1.42;1.33;;;;;;;;;;5029190;28;20258;-47
2021/11/03 04:22:40;;;;;;;1.45;1.35;;;;;;;;;;5025905;28;20184;-47
2021/11/03 04:25:07;;;;;;;1.50;1.40;;;;;;;;;;5034363;28;20176;-47
2021/11/03 04:27:33;;;;;;;1.50;1.40;;;;;;;;;;5035341;28;20237;-47
2021/11/03 04:29:59;;;;;;;2.05;1.48;;;;;;;;;;5034659;28;20192;-46
2021/11/03 04:32:26;;;;;;;1.42;1.33;;;;;;;;;;5035063;28;20211;-47
2021/11/03 04:34:52;;;;;;;1.58;1.48;;;;;;;;;;5027320;28;20219;-47
2021/11/03 04:37:18;;;;;;;1.50;1.40;;;;;;;;;;5015687;28;20181;-47
2021/11/03 04:39:45;;;;;;;1.40;1.30;;;;;;;;;;5031790;28;20184;-47
2021/11/03 04:42:11;;;;;;;1.38;1.35;;;;;;;;;;5034561;28;20460;-47
2021/11/03 04:44:37;;;;;;;1.50;1.40;;;;;;;;;;5034550;28;20261;-47
2021/11/03 04:47:03;;;;;;;1.50;1.40;;;;;;;;;;5031040;28;20623;-47
2021/11/03 04:49:29;;;;;;;1.55;1.45;;;;;;;;;;5021292;28;20185;-47
2021/11/03 04:51:56;;;;;;;1.50;1.40;;;;;;;;;;5019653;28;20594;-47
2021/11/03 04:54:22;;;;;;;1.40;1.30;;;;;;;;;;5033781;28;20187;-47
2021/11/03 04:56:49;;;;;;;3.42;3.13;;;;;;;;;;5035124;28;20289;-47
2021/11/03 04:59:16;;;;;;;3.47;3.17;;;;;;;;;;5034720;28;20230;-47
2021/11/03 05:01:41;;;;;;;2.78;2.20;;;;;;;;;;5034998;28;20196;-47
2021/11/03 05:04:08;;;;;;;3.38;3.10;;;;;;;;;;5031501;28;20282;-46
2021/11/03 05:06:35;;;;;;;3.20;2.90;;;;;;;;;;5016374;28;20188;-47
2021/11/03 05:09:01;;;;;;;3.55;2.30;;;;;;;;;;5015070;28;20175;-47
2021/11/03 05:11:27;;;;;;;4.68;2.53;;;;;;;;;;5027136;28;20482;-47
2021/11/03 05:13:53;;;;;;;3.42;2.13;;;;;;;;;;5033067;28;20180;-47
2021/11/03 05:16:20;;;;;;;5.70;2.85;;;;;;;;;;5015170;28;20160;-47
2021/11/03 05:18:47;;;;;;;5.60;2.30;;;;;;;;;;5018715;28;20195;-47
2021/11/03 05:21:12;;;;;;;2.95;2.25;;;;;;;;;;5034931;28;20191;-47
2021/11/03 05:23:39;;;;;;;3.63;2.08;;;;;;;;;;5033848;28;20188;-47
2021/11/03 05:26:05;;;;;;;4.35;2.53;;;;;;;;;;5033755;28;20245;-47
2021/11/03 05:28:32;;;;;;;4.05;2.35;;;;;;;;;;5033221;28;20274;-47
2021/11/03 05:30:57;;;;;;;3.28;2.97;;;;;;;;;;5015195;28;20630;-47
2021/11/03 05:33:23;;;;;;;6.22;3.70;;;;;;;;;;5022053;28;20207;-47
2021/11/03 05:35:50;;;;;;;7.80;3.40;;;;;;;;;;5015549;28;20260;-47
2021/11/03 05:38:16;;;;;;;6.03;3.20;;;;;;;;;;5028012;28;20187;-47
2021/11/03 05:40:42;;;;;;;4.45;3.05;;;;;;;;;;5034461;28;20530;-47
2021/11/03 05:43:08;;;;;;;3.33;3.03;;;;;;;;;;5032592;28;20254;-47
2021/11/03 05:45:34;;;;;;;4.95;3.38;;;;;;;;;;5015098;28;20247;-47
2021/11/03 05:48:00;;;;;;;4.57;3.05;;;;;;;;;;5028300;28;20184;-47
2021/11/03 05:50:31;;;;;;;4.03;3.40;;;;;;;;;;5029259;28;20183;-47
2021/11/03 05:52:57;;;;;;;3.53;3.22;;;;;;;;;;5033220;28;20626;-47
2021/11/03 05:55:23;;;;;;;3.92;2.92;;;;;;;;;;5034114;28;20184;-47
2021/11/03 05:57:52;;;;;;;3.42;3.13;;;;;;;;;;5031111;28;20518;-47
2021/11/03 06:00:21;;;;;;;3.72;2.83;;;;;;;;;;5022165;28;20223;-47
2021/11/03 06:02:47;;;;;;;3.30;2.65;;;;;;;;;;5033847;28;20237;-47
2021/11/03 06:05:14;;;;;;;4.30;2.90;;;;;;;;;;5025461;28;20179;-47
2021/11/03 06:07:41;;;;;;;3.33;2.95;;;;;;;;;;5033765;28;20210;-47
2021/11/03 06:10:08;;;;;;;3.95;3.03;;;;;;;;;;5029344;28;20237;-47
2021/11/03 06:12:34;;;;;;;2.90;2.70;;;;;;;;;;5034271;28;20282;-47
2021/11/03 06:15:01;;;;;;;4.28;2.92;;;;;;;;;;5022515;28;20235;-47
2021/11/03 06:17:27;;;;;;;3.40;2.70;;;;;;;;;;5023800;28;20188;-47
2021/11/03 06:19:53;;;;;;;4.85;2.72;;;;;;;;;;5032714;28;20175;-46
2021/11/03 06:22:19;;;;;;;2.80;2.40;;;;;;;;;;5033489;28;20567;-47
2021/11/03 06:24:46;;;;;;;4.32;2.50;;;;;;;;;;5028948;28;20188;-46
2021/11/03 06:27:12;;;;;;;5.10;2.42;;;;;;;;;;5033238;28;20314;-46
2021/11/03 06:29:38;;;;;;;2.92;2.63;;;;;;;;;;5027705;28;20196;-47
2021/11/03 06:32:04;;;;;;;2.97;2.65;;;;;;;;;;5037855;28;20199;-47
2021/11/03 06:34:30;;;;;;;4.82;2.65;;;;;;;;;;5033849;28;20615;-47
2021/11/03 06:36:56;;;;;;;3.00;2.70;;;;;;;;;;5024105;28;20233;-47
2021/11/03 06:39:22;;;;;;;3.05;2.60;;;;;;;;;;5037255;28;20184;-47
2021/11/03 06:41:49;;;;;;;3.00;2.80;;;;;;;;;;5035481;28;20176;-47
2021/11/03 06:44:15;;;;;;;3.25;2.95;;;;;;;;;;5036868;28;20188;-47
2021/11/03 06:46:41;;;;;;;6.43;2.50;;;;;;;;;;5036879;28;20219;-47
2021/11/03 06:49:07;;;;;;;3.33;2.67;;;;;;;;;;5030615;28;20227;-47
2021/11/03 06:51:34;;;;;;;2.78;2.58;;;;;;;;;;5031132;28;20207;-47
2021/11/03 06:54:01;;;;;;;2.90;2.38;;;;;;;;;;5022928;28;20176;-47
2021/11/03 06:56:28;;;;;;;3.10;2.20;;;;;;;;;;5028799;28;20490;-47
2021/11/03 06:58:54;;;;;;;2.78;2.50;;;;;;;;;;5036720;28;20182;-48
2021/11/03 07:01:20;;;;;;;5.10;2.20;;;;;;;;;;5037035;28;20234;-47
2021/11/03 07:03:47;;;;;;;2.08;1.90;;;;;;;;;;5036388;28;20191;-46
2021/11/03 07:06:13;;;;;;;1.90;1.80;;;;;;;;;;5030662;28;20179;-46
2021/11/03 07:08:39;;;;;;;2.17;1.98;;;;;;;;;;5031352;28;20180;-46
2021/11/03 07:11:06;;;;;;;2.58;1.83;;;;;;;;;;5036908;28;20238;-46
2021/11/03 07:13:32;;;;;;;2.33;2.13;;;;;;;;;;5035675;28;20619;-46
2021/11/03 07:15:59;;;;;;;1.80;1.70;;;;;;;;;;5031390;28;20213;-46
2021/11/03 07:18:25;;;;;;;2.15;1.92;;;;;;;;;;5031616;28;20562;-47
2021/11/03 07:20:51;;;;;;;2.25;2.15;;;;;;;;;;5021352;28;20179;-47
2021/11/03 07:23:19;;;;;;;2.15;1.95;;;;;;;;;;5035539;28;20194;-47
2021/11/03 07:25:46;;;;;;;2.38;2.00;;;;;;;;;;5036536;28;20187;-47
2021/11/03 07:28:12;;;;;;;3.28;2.20;;;;;;;;;;5020402;28;20191;-47
2021/11/03 07:30:39;;;;;;;4.30;1.92;;;;;;;;;;5035596;28;20215;-47
2021/11/03 07:33:07;;;;;;;5.10;2.28;;;;;;;;;;5034035;28;20211;-46
2021/11/03 07:35:33;;;;;;;2.63;2.42;;;;;;;;;;5035574;28;20172;-46
2021/11/03 07:38:00;;;;;;;3.15;2.28;;;;;;;;;;5036023;28;20221;-47
2021/11/03 07:40:28;;;;;;;2.95;2.30;;;;;;;;;;5036637;28;20199;-47
2021/11/03 07:42:57;;;;;;;3.80;2.50;;;;;;;;;;5035056;28;20709;-47
2021/11/03 07:45:27;;;;;;;3.58;2.30;;;;;;;;;;5032041;28;20183;-47
2021/11/03 07:47:55;;;;;;;2.30;2.10;;;;;;;;;;5035437;28;20192;-47
2021/11/03 07:50:23;;;;;;;2.95;2.35;;;;;;;;;;5020214;28;20184;-47
2021/11/03 07:52:49;;;;;;;2.90;2.35;;;;;;;;;;5034284;28;20235;-48
2021/11/03 07:55:15;;;;;;;2.63;1.77;;;;;;;;;;5029977;28;20195;-47
2021/11/03 07:57:42;;;;;;;2.25;2.05;;;;;;;;;;5035575;28;20259;-47
2021/11/03 08:00:15;;;;;;;4.60;2.30;;;;;;;;;;5028632;28;20569;-47
2021/11/03 08:02:41;;;;;;;2.75;1.75;;;;;;;;;;5035864;28;20198;-47
2021/11/03 08:05:07;;;;;;;2.10;1.90;;;;;;;;;;5034761;28;20179;-47
2021/11/03 08:07:33;;;;;;;2.80;1.90;;;;;;;;;;5017067;28;20583;-47
2021/11/03 08:09:59;;;;;;;3.03;1.70;;;;;;;;;;5024716;28;20187;-47
2021/11/03 08:12:25;;;;;;;1.98;1.52;;;;;;;;;;5042900;28;20273;-47
2021/11/03 08:14:52;;;;;;;1.73;1.52;;;;;;;;;;5037794;28;20705;-47
2021/11/03 08:17:20;;;;;;;2.38;1.95;;;;;;;;;;5033459;28;20186;-47
2021/11/03 08:19:48;;;;;;;2.38;1.80;;;;;;;;;;5027471;28;20191;-47
2021/11/03 08:22:20;;;;;;;4.05;1.95;;;;;;;;;;5035440;28;20207;-47
2021/11/03 08:24:46;;;;;;;3.95;2.63;;;;;;;;;;5034170;28;20219;-47
2021/11/03 08:27:12;;;;;;;2.50;2.30;;;;;;;;;;5033264;28;20227;-47
2021/11/03 08:29:39;;;;;;;3.17;2.33;;;;;;;;;;5028257;28;20225;-46
2021/11/03 08:32:06;;;;;;;4.15;2.40;;;;;;;;;;5028708;28;20207;-47
2021/11/03 08:34:33;;;;;;;4.22;2.30;;;;;;;;;;5022159;28;20188;-47
2021/11/03 08:37:04;;;;;;;2.67;2.47;;;;;;;;;;5017355;28;20190;-47
2021/11/03 08:39:30;;;;;;;6.10;2.28;;;;;;;;;;5015318;28;20165;-47
2021/11/03 08:41:56;;;;;;;3.88;2.70;;;;;;;;;;5019729;28;20211;-47
2021/11/03 08:44:22;;;;;;;5.15;2.13;;;;;;;;;;5034921;28;20227;-47
2021/11/03 08:46:48;;;;;;;4.07;2.13;;;;;;;;;;5032561;28;20206;-47
2021/11/03 08:49:14;;;;;;;3.38;2.15;;;;;;;;;;5034812;28;20222;-47
2021/11/03 08:51:40;;;;;;;4.03;2.08;;;;;;;;;;5035057;28;20231;-47
2021/11/03 08:54:07;;;;;;;5.88;2.10;;;;;;;;;;5028420;28;20174;-47
2021/11/03 08:56:35;;;;;;;2.10;1.90;;;;;;;;;;5015446;28;20168;-47
2021/11/03 08:59:03;;;;;;;5.45;1.88;;;;;;;;;;5029859;28;20183;-46
2021/11/03 09:01:29;;;;;;;2.40;1.73;;;;;;;;;;5016510;28;20193;-46
2021/11/03 09:03:55;;;;;;;2.00;1.80;;;;;;;;;;5015215;28;20203;-47
2021/11/03 09:06:22;;;;;;;2.58;2.05;;;;;;;;;;5025373;28;20194;-47
2021/11/03 09:08:50;;;;;;;2.42;2.10;;;;;;;;;;5027830;28;20655;-47
2021/11/03 09:11:16;;;;;;;2.78;1.70;;;;;;;;;;5031254;28;20207;-47
2021/11/03 09:13:42;;;;;;;1.80;1.70;;;;;;;;;;5034217;28;20172;-47
2021/11/03 09:16:08;;;;;;;3.17;1.83;;;;;;;;;;5034221;28;20485;-47
2021/11/03 09:18:34;;;;;;;1.83;1.48;;;;;;;;;;5034601;28;20183;-47
2021/11/03 09:21:02;;;;;;;1.70;1.60;;;;;;;;;;5016686;28;20200;-47
2021/11/03 09:23:28;;;;;;;1.48;1.38;;;;;;;;;;5033793;28;20172;-47
2021/11/03 09:25:55;;;;;;;2.03;1.60;;;;;;;;;;5030080;28;20180;-47
2021/11/03 09:28:22;;;;;;;4.50;2.20;;;;;;;;;;5034810;28;20286;-47
2021/11/03 09:30:49;;;;;;;2.03;1.83;;;;;;;;;;5017706;28;20187;-47
2021/11/03 09:33:15;;;;;;;5.05;1.60;;;;;;;;;;5020273;28;20197;-47
2021/11/03 09:35:49;;;;;;;2.30;1.60;;;;;;;;;;5025097;28;20190;-47
2021/11/03 09:38:16;;;;;;;2.83;1.38;;;;;;;;;;5014955;28;20172;-47
2021/11/03 09:41:02;;;;;;;3.63;1.50;;;;;;;;;;5014968;28;20244;-47
2021/11/03 09:43:32;;;;;;;4.75;1.80;;;;;;;;;;5023966;28;20175;-47
2021/11/03 09:46:15;;;;;;;1.75;1.50;;;;;;;;;;5032491;28;20184;-47
2021/11/03 09:48:41;;;;;;;6.35;1.50;;;;;;;;;;5031913;28;20198;-47
2021/11/03 09:51:15;;;;;;;1.98;1.33;;;;;;;;;;5015563;28;20172;-47
2021/11/03 09:53:45;;;;;;;2.28;1.30;;;;;;;;;;5025302;28;20230;-47
2021/11/03 09:56:13;;;;;;;2.22;1.35;;;;;;;;;;5033852;28;20211;-46
2021/11/03 09:59:02;;;;;;;2.72;1.67;;;;;;;;;;5037275;28;20283;-46
2021/11/03 10:01:49;;;;;;;1.83;1.67;;;;;;;;;;5031488;28;20184;-46
2021/11/03 10:04:21;;;;;;;1.70;1.60;;;;;;;;;;5037682;28;20269;-47
2021/11/03 10:06:47;;;;;;;2.88;1.55;;;;;;;;;;5030971;28;20406;-47
2021/11/03 10:09:13;;;;;;;1.85;1.60;;;;;;;;;;5038011;28;20251;-47
2021/11/03 10:11:41;;;;;;;1.65;1.55;;;;;;;;;;5038035;28;20199;-47
2021/11/03 10:14:08;;;;;;;1.92;1.50;;;;;;;;;;5037659;28;20488;-47
2021/11/03 10:16:45;;;;;;;2.05;1.55;;;;;;;;;;5046533;28;20183;-47
2021/11/03 10:19:32;;;;;;;1.50;1.38;;;;;;;;;;5042538;28;20184;-47
2021/11/03 10:22:00;;;;;;;1.75;1.60;;;;;;;;;;5037747;28;20473;-47
2021/11/03 10:24:32;;;;;;;2.83;1.52;;;;;;;;;;5031913;28;20195;-47
2021/11/03 10:27:05;;;;;;;3.20;1.40;;;;;;;;;;5017851;28;20196;-47
2021/11/03 10:29:31;;;;;;;1.30;1.20;;;;;;;;;;5018151;28;20566;-47
2021/11/03 10:32:01;;;;;;;2.03;1.30;;;;;;;;;;5018680;28;20196;-47
2021/11/03 10:34:41;;;;;;;1.95;1.42;;;;;;;;;;5037054;28;20187;-47
2021/11/03 10:37:11;;;;;;;2.65;1.67;;;;;;;;;;5034589;28;20469;-47
2021/11/03 10:39:44;;;;;;;1.80;1.40;;;;;;;;;;5017823;28;20174;-47
2021/11/03 10:42:17;;;;;;;2.92;1.50;;;;;;;;;;5020265;28;20184;-47
2021/11/03 10:44:44;;;;;;;1.73;1.35;;;;;;;;;;5029315;28;20660;-47
2021/11/03 10:47:15;;;;;;;2.47;1.38;;;;;;;;;;5030807;28;20270;-47
2021/11/03 10:49:46;;;;;;;1.52;1.13;;;;;;;;;;5029974;28;20184;-47
2021/11/03 10:52:21;;;;;;;1.60;1.17;;;;;;;;;;5032520;28;20203;-47
2021/11/03 10:54:51;;;;;;;1.75;1.20;;;;;;;;;;5036302;28;20182;-47
2021/11/03 10:57:37;;;;;;;3.88;1.33;;;;;;;;;;5036397;28;20179;-47
2021/11/03 11:00:18;;;;;;;3.33;1.50;;;;;;;;;;5036147;28;20251;-47
2021/11/03 11:02:56;;;;;;;1.40;1.00;;;;;;;;;;5023877;28;20192;-47
2021/11/03 11:05:24;;;;;;;2.70;1.48;;;;;;;;;;5026630;28;20625;-47
2021/11/03 11:07:52;;;;;;;1.85;1.20;;;;;;;;;;5037066;28;20168;-47
2021/11/03 11:10:41;;;;;;;1.35;1.20;;;;;;;;;;5036411;28;20180;-47
2021/11/03 11:13:13;;;;;;;1.67;1.42;;;;;;;;;;5035035;28;20223;-47
2021/11/03 11:15:45;;;;;;;1.20;1.10;;;;;;;;;;5016943;28;20188;-47
2021/11/03 11:18:18;;;;;;;1.50;1.30;;;;;;;;;;5017042;28;20260;-47
2021/11/03 11:20:47;;;;;;;1.45;1.25;;;;;;;;;;5033921;28;20172;-47
2021/11/03 11:23:19;;;;;;;1.20;1.10;;;;;;;;;;5035889;28;20195;-47
2021/11/03 11:25:45;;;;;;;1.63;1.20;;;;;;;;;;5024388;28;20459;-47
2021/11/03 11:28:11;;;;;;;1.75;1.25;;;;;;;;;;5028781;28;20208;-47
2021/11/03 11:30:40;;;;;;;1.02;0.95;;;;;;;;;;5036545;28;20626;-47
2021/11/03 11:33:25;;;;;;;1.65;1.10;;;;;;;;;;5036093;28;20620;-46
2021/11/03 11:36:10;;;;;;;2.08;1.17;;;;;;;;;;5019484;28;20180;-47
2021/11/03 11:38:38;;;;;;;1.88;1.08;;;;;;;;;;5016408;28;20207;-47
2021/11/03 11:41:17;;;;;;;1.13;1.02;;;;;;;;;;5034217;28;20211;-47
2021/11/03 11:43:50;;;;;;;1.23;1.00;;;;;;;;;;5035322;28;20175;-47
2021/11/03 11:46:16;;;;;;;2.72;1.10;;;;;;;;;;5032218;28;20234;-47
2021/11/03 11:48:43;;;;;;;1.95;0.85;;;;;;;;;;5036094;28;20172;-47
2021/11/03 11:51:12;;;;;;;1.60;1.00;;;;;;;;;;5028219;28;20191;-47
2021/11/03 11:53:40;;;;;;;2.60;1.05;;;;;;;;;;5035420;28;20179;-47
2021/11/03 11:56:09;;;;;;;1.00;0.90;;;;;;;;;;5032644;28;20229;-47
2021/11/03 11:58:38;;;;;;;0.77;0.77;;;;;;;;;;5016503;28;20284;-47
2021/11/03 12:01:13;;;;;;;0.77;0.70;;;;;;;;;;5025548;28;20214;-47
2021/11/03 12:03:53;;;;;;;2.25;1.10;;;;;;;;;;5034846;28;20202;-48
2021/11/03 12:06:20;;;;;;;1.88;0.82;;;;;;;;;;5031309;28;20210;-47
2021/11/03 12:08:46;;;;;;;2.38;1.00;;;;;;;;;;5035306;28;20179;-47
2021/11/03 12:11:15;;;;;;;0.90;0.80;;;;;;;;;;5026233;28;20182;-48
2021/11/03 12:13:41;;;;;;;0.90;0.80;;;;;;;;;;5034486;28;20606;-47
2021/11/03 12:16:22;;;;;;;0.85;0.80;;;;;;;;;;5035152;28;20184;-47
2021/11/03 12:18:52;;;;;;;1.63;1.00;;;;;;;;;;5035307;28;20176;-47
2021/11/03 12:21:21;;;;;;;0.95;0.82;;;;;;;;;;5033126;28;20183;-47
2021/11/03 12:23:49;;;;;;;2.08;0.90;;;;;;;;;;5033927;28;20187;-47
2021/11/03 12:26:27;;;;;;;1.95;0.95;;;;;;;;;;5023536;28;20242;-47
2021/11/03 12:28:56;;;;;;;1.85;0.90;;;;;;;;;;5034637;28;20572;-47
2021/11/03 12:31:41;;;;;;;2.38;0.70;;;;;;;;;;5030782;28;20214;-47
2021/11/03 12:34:07;;;;;;;1.40;1.08;;;;;;;;;;5034433;28;20176;-47
2021/11/03 12:36:50;;;;;;;1.00;0.80;;;;;;;;;;5034033;28;20191;-47
2021/11/03 12:39:39;;;;;;;1.58;0.90;;;;;;;;;;5024486;28;20172;-49
2021/11/03 12:42:20;;;;;;;2.55;0.85;;;;;;;;;;5034049;28;20196;-48
2021/11/03 12:44:57;;;;;;;1.13;0.80;;;;;;;;;;5033501;28;20191;-48
2021/11/03 12:47:24;;;;;;;2.60;1.02;;;;;;;;;;5034292;28;20198;-48
2021/11/03 12:50:06;;;;;;;2.28;0.90;;;;;;;;;;5027814;28;20255;-48
2021/11/03 12:52:32;;;;;;;2.20;0.98;;;;;;;;;;5030324;28;20579;-47
2021/11/03 12:55:01;;;;;;;2.22;0.95;;;;;;;;;;5026441;28;20183;-48
2021/11/03 12:57:29;;;;;;;1.30;1.00;;;;;;;;;;5027725;28;20176;-48
2021/11/03 13:00:03;;;;;;;1.85;1.25;;;;;;;;;;5033683;28;20668;-48
2021/11/03 13:02:36;;;;;;;1.75;0.88;;;;;;;;;;5031128;28;20183;-48
2021/11/03 13:05:34;;;;;;;1.77;0.73;;;;;;;;;;5033228;28;20187;-48
2021/11/03 13:08:00;;;;;;;6.25;1.05;;;;;;;;;;5013838;28;20454;-48
2021/11/03 13:10:37;;;;;;;8.48;0.98;;;;;;;;;;5034464;28;20187;-48
2021/11/03 13:13:05;;;;;;;2.30;0.90;;;;;;;;;;5033907;28;20196;-48
2021/11/03 13:15:38;;;;;;;4.85;1.02;;;;;;;;;;5027765;28;20498;-48
2021/11/03 13:18:07;;;;;;;2.95;0.90;;;;;;;;;;5026563;28;20180;-48
2021/11/03 13:20:35;;;;;;;3.40;0.80;;;;;;;;;;5038098;28;20180;-47
2021/11/03 13:23:01;;;;;;;7.38;1.10;;;;;;;;;;5034125;28;20178;-48
2021/11/03 13:25:30;;;;;;;1.77;0.90;;;;;;;;;;5031938;28;20551;-48
2021/11/03 13:27:56;;;;;;;2.22;0.85;;;;;;;;;;5034643;28;20215;-48
2021/11/03 13:30:34;;;;;;;2.53;0.98;;;;;;;;;;5028122;28;20187;-48
2021/11/03 13:33:01;;;;;;;3.70;1.25;;;;;;;;;;5032435;28;20247;-48
2021/11/03 13:35:37;;;;;;;3.70;1.10;;;;;;;;;;5031455;28;20578;-48
2021/11/03 13:38:21;;;;;;;5.70;1.08;;;;;;;;;;5029967;28;20558;-48
2021/11/03 13:40:55;;;;;;;1.67;1.30;;;;;;;;;;5032954;28;20789;-48
2021/11/03 13:43:21;;;;;;;5.88;1.30;;;;;;;;;;5033314;28;20191;-48
2021/11/03 13:45:47;;;;;;;3.40;1.00;;;;;;;;;;5032724;28;20439;-48
2021/11/03 13:48:13;;;;;;;4.70;1.65;;;;;;;;;;5032899;28;20187;-48
2021/11/03 13:50:48;;;;;;;2.85;1.40;;;;;;;;;;5022699;28;20185;-48
2021/11/03 13:53:17;;;;;;;2.22;1.17;;;;;;;;;;5031600;28;20211;-48
2021/11/03 13:55:49;;;;;;;3.72;1.20;;;;;;;;;;5029845;28;20184;-48
2021/11/03 13:58:19;;;;;;;3.83;1.23;;;;;;;;;;5031139;28;20226;-48
2021/11/03 14:00:56;;;;;;;4.07;1.23;;;;;;;;;;5032062;28;20582;-48
2021/11/03 14:03:35;;;;;;;4.60;1.83;;;;;;;;;;5029165;28;20203;-48
2021/11/03 14:06:10;;;;;;;5.45;1.58;;;;;;;;;;5033053;28;20207;-48
2021/11/03 14:08:36;;;;;;;2.10;1.15;;;;;;;;;;5030963;28;20643;-48
2021/11/03 14:11:03;;;;;;;2.88;1.35;;;;;;;;;;5031806;28;20275;-48
2021/11/03 14:13:28;;;;;;;4.82;1.45;;;;;;;;;;5025879;28;20416;-48
2021/11/03 14:15:54;;;;;;;2.65;1.15;;;;;;;;;;5033207;28;20183;-48
2021/11/03 14:18:20;;;;;;;1.85;1.13;;;;;;;;;;5033055;28;20203;-48
2021/11/03 14:20:49;;;;;;;2.67;1.10;;;;;;;;;;5033149;28;20179;-48
2021/11/03 14:23:17;;;;;;;2.97;1.40;;;;;;;;;;5033313;28;20188;-48
2021/11/03 14:25:43;;;;;;;3.15;1.15;;;;;;;;;;5032911;28;20195;-48
2021/11/03 14:28:11;;;;;;;2.60;1.10;;;;;;;;;;5034255;28;20521;-48
2021/11/03 14:30:41;;;;;;;1.85;0.98;;;;;;;;;;5033873;28;20264;-48
2021/11/03 14:33:17;;;;;;;1.55;1.05;;;;;;;;;;5032987;28;20192;-48
2021/11/03 14:35:43;;;;;;;2.97;1.23;;;;;;;;;;5033802;28;20187;-48
2021/11/03 14:38:16;;;;;;;2.33;1.30;;;;;;;;;;5031036;28;20540;-48
2021/11/03 14:40:42;;;;;;;3.22;0.93;;;;;;;;;;5032870;28;20175;-48
2021/11/03 14:43:08;;;;;;;2.10;1.17;;;;;;;;;;5030720;28;20221;-48
2021/11/03 14:45:34;;;;;;;1.52;1.02;;;;;;;;;;5032337;28;20188;-48
2021/11/03 14:48:00;;;;;;;2.13;0.88;;;;;;;;;;5029432;28;20183;-48
2021/11/03 14:50:27;;;;;;;1.20;0.90;;;;;;;;;;5031858;28;20200;-48